Aeroporto :
LOGIN :

Iscrizione | Disclaimer

   EN    FR    IT 

 










Sommario :    VFR   VFR Marginale   IFR   IFR Intensivo   IFR Molto Intensivo
Visibilità : 
Base nubi : 
>= 8 km
>= 3000ft
5 / 8 km
1000 / 3000 ft
1500m / 5 km
500 / 1000 ft
800 / 1500m
200 / 500 ft
< 800m
< 200 ft
Simboli :   Temporali  Nebbia  Neve Forte  Precipitazioni Forti  Vento > 20 kt
SIGMETs :   Varie  Temporali  Ghiacco  Turbolenza  Onda orograficha  Ceneri Vulcaniche






- Altitudine del aeroporto : 2356 ft


LZTT - Poprad Tatry

ULTIMO METAR :
  • 031200Z 15007KT 130V190 9999 FEW043 BKN100 20/11 Q1012 NOSIG

METARs OBSOLETI :
  • 031130Z 16008KT 9999 FEW043 BKN100 20/12 Q1012 NOSIG
  • 031100Z 15008KT 9999 FEW043 21/12 Q1012 NOSIG
  • 031030Z 15007KT 120V180 9999 FEW043 21/12 Q1012 NOSIG
  • 031000Z 14008KT 100V180 9999 FEW040 20/12 Q1013 NOSIG
  • 030930Z 14006KT 120V180 9999 FEW033 20/12 Q1013 NOSIG

TAF TAF LZTT
Valido dal 03 a 12 ore il 04 a 12 ore UTC


031100Z 0312/0412 15008KT 9999 FEW050
BECMG 0314/0316 FEW050 BKN090
TEMPO 0321/0408 28006KT -SHRA FEW045CB
PROB40
TEMPO 0401/0406 4000 TSRA BKN040CB



MetMap, La meteo Aeronautica in un colpo d'occhio ! - Copyright ORBIFLY Dicembre 2007 - Disclaimer

ORBIFLY MET'MAP TEAM :

Programmazione e sviluppo : Alexandra Zaïnal
Concezione : Baudouin d'Aumeries
Aiuto per la programmazione : Marc-Olivier Méhu
Supporto tecnico e logistico : Manuel Goepfert
Aiuto per la traduzione : Arnaldo La Scala

Contatto : metmap@orbifly.com




FONTI E CREDITI :

   NOAA